Time;durP1;ratioP1;P1;durP2;ratioP2;P2;SDS_P1;SDS_P2;PMS_P1;PMS_P2;Temp;Humidity;BMP_temperature;BMP_pressure;BME280_temperature;BME280_humidity;BME280_pressure;Samples;Min_cycle;Max_cycle;Signal;HPM_P1;HPM_P2
2021/12/20 00:00:15;;;;;;;26.05;14.15;;;;;;;5.81;96.86;102113.53;5051820;28;20129;-52
2021/12/20 00:02:43;;;;;;;21.58;13.13;;;;;;;5.74;96.50;102106.19;5051321;28;20048;-48
2021/12/20 00:05:10;;;;;;;22.63;14.82;;;;;;;5.76;96.14;102104.34;5051346;28;20055;-48
2021/12/20 00:07:37;;;;;;;20.20;12.70;;;;;;;5.82;96.00;102106.59;5051758;28;20727;-49
2021/12/20 00:10:05;;;;;;;24.20;13.10;;;;;;;5.83;95.98;102097.88;5074468;22;20064;-50
2021/12/20 00:12:32;;;;;;;20.67;12.15;;;;;;;5.83;95.11;102093.50;5090603;28;20161;-50
2021/12/20 00:15:01;;;;;;;21.45;12.65;;;;;;;5.86;95.05;102095.09;5090390;28;20127;-47
2021/12/20 00:17:28;;;;;;;24.73;12.07;;;;;;;5.74;95.46;102091.44;5090814;28;20109;-50
2021/12/20 00:19:55;;;;;;;18.85;12.18;;;;;;;5.75;95.38;102100.06;5090556;28;20414;-45
2021/12/20 00:22:25;;;;;;;19.08;11.07;;;;;;;5.73;95.52;102097.56;5090743;28;20056;-51
2021/12/20 00:24:53;;;;;;;18.92;11.07;;;;;;;5.73;95.52;102096.72;5091031;28;20072;-49
2021/12/20 00:27:21;;;;;;;19.30;10.88;;;;;;;5.73;95.06;102094.97;5090438;28;20055;-45
2021/12/20 00:29:48;;;;;;;16.65;10.23;;;;;;;5.81;94.87;102100.56;5090323;28;20043;-45
2021/12/20 00:32:19;;;;;;;17.42;10.23;;;;;;;5.71;94.41;102099.41;5093421;28;20117;-50
2021/12/20 00:34:46;;;;;;;17.27;10.35;;;;;;;5.86;94.14;102098.53;5095004;28;20051;-47
2021/12/20 00:42:40;;;;;;;17.08;9.55;;;;;;;5.69;94.01;102090.88;5078013;28;20464;-48
2021/12/20 00:45:08;;;;;;;19.90;10.50;;;;;;;5.76;93.89;102083.56;5094789;28;20482;-50
2021/12/20 00:47:36;;;;;;;16.88;9.02;;;;;;;5.66;94.24;102084.13;5094442;28;20052;-51
2021/12/20 00:50:04;;;;;;;14.60;8.80;;;;;;;5.73;93.88;102081.97;5095315;28;20417;-49
2021/12/20 00:52:31;;;;;;;17.60;9.23;;;;;;;5.76;94.25;102088.75;5095003;28;20075;-44
2021/12/20 00:54:58;;;;;;;15.15;9.52;;;;;;;5.72;93.41;102084.66;5100012;22;20041;-45
2021/12/20 00:57:25;;;;;;;16.55;9.32;;;;;;;5.74;93.35;102086.25;5041524;28;20061;-47
2021/12/20 00:59:52;;;;;;;17.52;9.80;;;;;;;5.67;93.53;102083.16;5053788;28;20049;-47
2021/12/20 01:02:19;;;;;;;15.73;9.18;;;;;;;5.66;94.01;102085.88;5054092;28;20053;-46
2021/12/20 01:04:47;;;;;;;13.68;8.27;;;;;;;5.70;93.63;102083.91;5053461;28;20049;-47
2021/12/20 01:07:14;;;;;;;12.00;8.48;;;;;;;5.71;93.66;102089.00;5053820;28;20134;-48
2021/12/20 01:09:41;;;;;;;14.27;7.97;;;;;;;5.75;93.50;102094.88;5053700;28;20053;-49
2021/12/20 01:12:15;;;;;;;14.55;8.55;;;;;;;5.73;93.68;102096.72;5053820;28;20061;-47
2021/12/20 01:14:42;;;;;;;14.77;8.23;;;;;;;5.73;93.22;102094.13;5053294;28;20045;-46
2021/12/20 01:17:08;;;;;;;15.48;7.80;;;;;;;5.73;93.77;102086.34;5053516;28;20099;-48
2021/12/20 01:19:36;;;;;;;18.00;8.95;;;;;;;5.70;93.91;102089.09;5053571;28;20107;-48
2021/12/20 01:22:06;;;;;;;14.00;8.27;;;;;;;5.68;94.04;102092.63;5053834;28;20376;-47
2021/12/20 01:24:33;;;;;;;15.25;7.78;;;;;;;5.67;94.34;102082.34;5053369;28;20089;-46
2021/12/20 01:27:00;;;;;;;18.40;8.02;;;;;;;5.70;94.60;102089.09;5053189;28;20131;-48
2021/12/20 01:29:26;;;;;;;13.43;8.23;;;;;;;5.65;94.09;102090.25;5053185;28;20133;-49
2021/12/20 01:31:53;;;;;;;17.55;8.40;;;;;;;5.56;94.58;102101.16;5053341;28;20349;-47
2021/12/20 01:34:20;;;;;;;14.75;7.80;;;;;;;5.54;94.67;102103.00;5053272;28;20056;-47
2021/12/20 01:36:47;;;;;;;16.98;8.82;;;;;;;5.55;94.66;102099.47;5052988;28;20091;-47
2021/12/20 01:39:15;;;;;;;14.52;8.32;;;;;;;5.53;94.93;102100.47;5052991;28;20523;-47
2021/12/20 01:41:43;;;;;;;14.27;8.65;;;;;;;5.52;95.30;102096.22;5052937;28;20080;-47
2021/12/20 01:44:10;;;;;;;16.27;8.38;;;;;;;5.55;94.43;102094.28;5052015;28;20483;-46
2021/12/20 01:46:37;;;;;;;18.10;9.02;;;;;;;5.59;94.97;102095.78;5052694;28;20052;-51
2021/12/20 01:49:08;;;;;;;14.27;8.18;;;;;;;5.54;94.59;102090.00;5052898;28;20118;-50
2021/12/20 01:51:48;;;;;;;15.55;9.15;;;;;;;5.57;94.66;102089.84;5052706;28;20049;-46
2021/12/20 01:54:17;;;;;;;13.93;7.80;;;;;;;5.54;94.31;102081.38;5052828;28;20052;-48
2021/12/20 01:56:45;;;;;;;14.23;7.80;;;;;;;5.45;94.45;102087.94;5052837;28;20045;-48
2021/12/20 01:59:12;;;;;;;16.00;7.93;;;;;;;5.53;94.36;102085.75;5044692;28;20056;-47
2021/12/20 02:01:41;;;;;;;15.55;8.15;;;;;;;5.47;94.92;102080.06;5052833;28;20076;-47
2021/12/20 02:04:09;;;;;;;13.98;8.13;;;;;;;5.48;94.88;102084.34;5052539;28;20063;-46
2021/12/20 02:06:39;;;;;;;15.68;7.78;;;;;;;5.58;94.60;102083.72;5052685;28;20057;-47
2021/12/20 02:09:08;;;;;;;14.88;7.43;;;;;;;5.48;94.47;102076.53;5052914;28;20422;-46
2021/12/20 02:11:41;;;;;;;21.42;8.23;;;;;;;5.44;94.59;102070.69;5053241;28;20052;-46
2021/12/20 02:14:10;;;;;;;16.20;7.47;;;;;;;5.49;94.22;102083.41;5052713;28;20542;-46
2021/12/20 02:16:38;;;;;;;15.63;6.88;;;;;;;5.53;93.70;102077.94;5052458;28;20106;-46
2021/12/20 02:19:09;;;;;;;17.42;7.45;;;;;;;5.50;94.00;102070.34;5052534;28;20044;-47
2021/12/20 02:21:38;;;;;;;14.10;7.10;;;;;;;5.50;94.06;102083.31;5052484;28;20045;-47
2021/12/20 02:24:06;;;;;;;17.92;7.40;;;;;;;5.53;94.17;102088.34;5052697;28;20064;-48
2021/12/20 02:26:32;;;;;;;18.70;7.18;;;;;;;5.55;93.85;102083.91;5052112;28;20075;-46
2021/12/20 02:29:04;;;;;;;13.10;7.10;;;;;;;5.51;94.29;102074.59;5052407;28;20053;-49
2021/12/20 02:37:27;;;;;;;11.95;7.47;;;;;;;5.50;93.97;102080.72;5052246;28;20067;-50
2021/12/20 02:39:54;;;;;;;16.55;7.40;;;;;;;5.45;94.11;102082.75;5052059;28;20056;-50
2021/12/20 02:42:25;;;;;;;15.52;7.75;;;;;;;5.52;94.18;102084.06;5051930;28;20156;-47
2021/12/20 02:45:06;;;;;;;20.77;7.75;;;;;;;5.40;94.60;102079.56;5052213;28;20053;-47
2021/12/20 02:47:33;;;;;;;14.52;6.90;;;;;;;5.44;95.05;102075.88;5051967;28;20060;-47
2021/12/20 02:50:00;;;;;;;13.10;7.43;;;;;;;5.46;94.54;102068.84;5051971;28;20088;-46
2021/12/20 02:52:28;;;;;;;18.33;7.47;;;;;;;5.43;94.70;102073.38;5052404;28;20060;-49
2021/12/20 02:54:55;;;;;;;18.77;7.57;;;;;;;5.44;94.43;102075.03;5051564;28;20099;-47
2021/12/20 02:57:21;;;;;;;14.82;7.65;;;;;;;5.38;95.29;102071.03;5051499;28;20057;-50
2021/12/20 02:59:48;;;;;;;17.02;7.50;;;;;;;5.43;94.70;102078.56;5051750;28;20095;-50
2021/12/20 03:02:16;;;;;;;18.92;7.78;;;;;;;5.40;94.45;102071.78;5051672;28;20498;-51
2021/12/20 03:04:43;;;;;;;17.80;7.80;;;;;;;5.36;95.02;102078.06;5051403;28;20065;-47
2021/12/20 03:07:15;;;;;;;14.80;7.40;;;;;;;5.44;94.99;102073.28;5051944;28;20122;-52
2021/12/20 03:09:50;;;;;;;15.70;6.70;;;;;;;5.42;94.67;102074.28;5051305;28;20049;-49
2021/12/20 03:12:17;;;;;;;17.38;7.30;;;;;;;5.38;94.87;102071.03;5051389;28;20060;-47
2021/12/20 03:14:47;;;;;;;16.50;7.07;;;;;;;5.37;94.67;102078.91;5051419;28;20072;-48
2021/12/20 03:17:14;;;;;;;20.08;7.15;;;;;;;5.28;94.78;102075.91;5051318;28;20463;-49
2021/12/20 03:19:40;;;;;;;16.02;6.63;;;;;;;5.31;94.71;102083.53;5051136;28;20118;-47
2021/12/20 03:22:08;;;;;;;9.57;6.43;;;;;;;5.42;94.94;102077.72;5051419;28;20083;-53
2021/12/20 03:24:35;;;;;;;13.20;7.05;;;;;;;5.42;94.03;102077.72;5051234;28;20132;-51
2021/12/20 03:27:04;;;;;;;19.55;7.43;;;;;;;5.49;94.26;102083.41;5050685;28;20576;-51
2021/12/20 03:29:31;;;;;;;15.07;6.82;;;;;;;5.36;93.92;102072.03;5051172;28;20076;-49
2021/12/20 03:31:58;;;;;;;19.98;6.78;;;;;;;5.39;94.46;102074.47;5051214;28;20052;-48
2021/12/20 03:34:24;;;;;;;17.23;7.18;;;;;;;5.42;94.57;102082.91;5051274;28;20056;-48
2021/12/20 03:36:51;;;;;;;14.50;6.45;;;;;;;5.34;94.11;102079.91;5050583;28;20481;-49
2021/12/20 03:39:19;;;;;;;15.13;6.53;;;;;;;5.38;94.24;102084.00;5050738;28;20114;-49
2021/12/20 03:41:45;;;;;;;15.73;6.82;;;;;;;5.27;94.00;102078.59;5050946;28;20068;-47
2021/12/20 03:44:14;;;;;;;20.70;7.85;;;;;;;5.27;93.98;102078.59;5051023;28;20118;-49
2021/12/20 03:46:41;;;;;;;17.63;7.57;;;;;;;5.41;93.44;102081.25;5050493;28;20517;-47
2021/12/20 03:49:08;;;;;;;17.02;7.00;;;;;;;5.38;93.65;102081.41;5050629;28;20052;-46
2021/12/20 03:51:36;;;;;;;24.50;7.95;;;;;;;5.30;93.52;102083.59;5050897;28;20118;-48
2021/12/20 03:54:02;;;;;;;19.85;8.15;;;;;;;5.38;93.48;102073.63;5050695;28;20049;-49
2021/12/20 03:56:29;;;;;;;15.85;7.38;;;;;;;5.33;93.55;102089.47;5050684;28;20065;-47
2021/12/20 03:58:56;;;;;;;17.13;6.60;;;;;;;5.25;93.96;102088.22;5050659;28;20442;-48
2021/12/20 04:01:25;;;;;;;19.00;6.88;;;;;;;5.31;93.70;102083.53;5050546;28;20048;-52
2021/12/20 04:03:52;;;;;;;17.95;7.18;;;;;;;5.25;93.77;102086.47;5050675;28;20057;-47
2021/12/20 04:06:19;;;;;;;17.02;6.50;;;;;;;5.23;94.50;102093.50;5049678;28;20495;-47
2021/12/20 04:08:48;;;;;;;18.10;6.95;;;;;;;5.24;94.23;102086.53;5050470;28;20056;-46
2021/12/20 04:11:15;;;;;;;22.15;7.28;;;;;;;5.23;95.15;102074.50;5050945;28;20554;-46
2021/12/20 04:13:42;;;;;;;19.38;7.15;;;;;;;5.22;94.49;102080.59;5050419;28;20057;-48
2021/12/20 04:16:08;;;;;;;18.15;6.88;;;;;;;5.19;95.06;102075.63;5050470;28;20052;-46
2021/12/20 04:18:37;;;;;;;18.45;7.38;;;;;;;5.17;95.11;102073.09;5050369;28;20053;-48
2021/12/20 04:21:04;;;;;;;19.48;8.45;;;;;;;5.15;95.49;102067.16;5050402;28;20052;-47
2021/12/20 04:23:31;;;;;;;15.85;8.23;;;;;;;5.23;95.12;102072.72;5050447;28;20560;-48
2021/12/20 04:25:58;;;;;;;20.77;7.50;;;;;;;5.33;94.63;102079.06;5050236;28;20076;-47
2021/12/20 04:28:25;;;;;;;19.67;7.00;;;;;;;5.31;93.93;102074.91;5049842;28;20045;-49
2021/12/20 04:30:52;;;;;;;22.33;7.55;;;;;;;5.24;93.92;102079.59;5050284;28;20053;-51
2021/12/20 04:33:19;;;;;;;22.92;7.18;;;;;;;5.22;93.24;102080.59;5050340;28;20049;-51
2021/12/20 04:35:48;;;;;;;20.75;7.50;;;;;;;5.24;94.32;102086.53;5050383;28;20080;-48
2021/12/20 04:38:15;;;;;;;20.60;7.72;;;;;;;5.21;94.37;102086.72;5050002;28;20051;-48
2021/12/20 04:40:43;;;;;;;19.98;7.97;;;;;;;5.24;94.00;102089.13;5050146;28;20053;-47
2021/12/20 04:43:10;;;;;;;24.58;8.38;;;;;;;5.30;93.32;102091.38;5050276;28;20057;-46
2021/12/20 04:45:37;;;;;;;21.70;7.28;;;;;;;5.21;93.58;102090.16;5049886;28;20126;-47
2021/12/20 04:48:04;;;;;;;24.00;7.13;;;;;;;5.22;92.76;102083.19;5050137;28;20104;-48
2021/12/20 04:50:31;;;;;;;21.38;7.90;;;;;;;5.15;92.10;102084.50;5049989;28;20114;-46
2021/12/20 04:53:00;;;;;;;22.38;7.57;;;;;;;5.17;91.52;102088.66;5050347;28;20430;-47
2021/12/20 04:55:27;;;;;;;22.95;7.43;;;;;;;5.20;90.40;102088.47;5049632;28;20115;-49
2021/12/20 04:57:55;;;;;;;21.45;7.20;;;;;;;5.19;90.95;102088.59;5049976;28;20073;-46
2021/12/20 05:00:25;;;;;;;22.20;7.07;;;;;;;5.23;90.92;102087.47;5049909;28;20470;-49
2021/12/20 05:02:52;;;;;;;24.23;8.40;;;;;;;5.15;91.63;102084.50;5049999;28;20049;-46
2021/12/20 05:05:22;;;;;;;31.10;7.70;;;;;;;5.26;91.24;102084.69;5049846;28;20053;-48
2021/12/20 05:07:49;;;;;;;23.95;6.97;;;;;;;5.16;90.02;102086.16;5049679;28;20080;-46
2021/12/20 05:10:26;;;;;;;24.20;7.30;;;;;;;5.18;90.29;102081.72;5050015;28;20049;-51
2021/12/20 05:12:55;;;;;;;25.80;7.22;;;;;;;5.17;89.93;102080.06;5050276;28;20132;-46
2021/12/20 05:15:22;;;;;;;29.73;7.40;;;;;;;5.21;90.95;102086.72;5049654;28;20071;-46
2021/12/20 05:17:50;;;;;;;22.70;7.53;;;;;;;5.18;90.80;102090.34;5051254;28;20057;-47
2021/12/20 05:20:17;;;;;;;26.42;8.25;;;;;;;5.22;90.89;102080.59;5053623;28;20419;-46
2021/12/20 05:22:45;;;;;;;29.00;7.78;;;;;;;5.18;90.69;102079.97;5053635;28;20107;-47
2021/12/20 05:25:12;;;;;;;21.00;7.07;;;;;;;5.18;91.34;102079.13;5053926;28;20072;-46
2021/12/20 05:27:41;;;;;;;16.70;6.65;;;;;;;5.20;90.92;102075.50;5053548;28;20069;-49
2021/12/20 05:30:10;;;;;;;22.70;7.68;;;;;;;5.19;90.87;102081.63;5054103;28;20060;-51
2021/12/20 05:32:38;;;;;;;19.20;7.35;;;;;;;5.19;87.34;102086.81;5053990;28;20921;-48
2021/12/20 05:35:06;;;;;;;20.65;6.40;;;;;;;5.14;85.05;102083.66;5053286;28;20057;-48
2021/12/20 05:37:33;;;;;;;30.20;6.60;;;;;;;5.23;85.62;102082.28;5053478;28;20481;-46
2021/12/20 05:40:00;;;;;;;26.63;6.03;;;;;;;5.28;84.89;102085.44;5053128;28;20096;-48
2021/12/20 05:42:27;;;;;;;24.55;7.80;;;;;;;5.23;85.29;102084.88;5053440;28;20076;-49
2021/12/20 05:44:56;;;;;;;26.05;8.38;;;;;;;5.18;84.91;102089.50;5053248;28;20454;-48
2021/12/20 05:47:23;;;;;;;22.85;6.50;;;;;;;5.19;84.17;102086.00;5053134;28;20044;-48
2021/12/20 05:49:50;;;;;;;18.17;6.00;;;;;;;5.22;84.11;102081.44;5053140;28;20142;-46
2021/12/20 05:52:17;;;;;;;23.50;6.22;;;;;;;5.16;84.95;102078.38;5053416;28;20110;-50
2021/12/20 05:54:44;;;;;;;25.13;7.55;;;;;;;5.30;83.38;102087.03;5053026;28;20130;-47
2021/12/20 05:57:11;;;;;;;18.75;5.63;;;;;;;5.23;83.57;102082.28;5052993;28;20075;-47
2021/12/20 05:59:38;;;;;;;21.58;6.40;;;;;;;5.16;85.19;102092.19;5053057;28;20107;-50
2021/12/20 06:02:06;;;;;;;18.35;6.20;;;;;;;5.21;84.52;102084.94;5053224;28;20053;-47
2021/12/20 06:04:33;;;;;;;17.45;5.75;;;;;;;5.21;82.89;102090.16;5052852;28;20126;-52
2021/12/20 06:07:00;;;;;;;22.42;6.03;;;;;;;5.23;83.89;102093.50;5053183;28;20126;-51
2021/12/20 06:09:28;;;;;;;27.77;5.90;;;;;;;5.25;84.04;102096.00;5052481;28;20061;-47
2021/12/20 06:11:59;;;;;;;17.02;5.85;;;;;;;5.17;84.78;102103.41;5052567;28;20118;-47
2021/12/20 06:14:26;;;;;;;22.58;6.32;;;;;;;5.12;85.47;102102.81;5052806;28;20048;-46
2021/12/20 06:16:55;;;;;;;27.17;8.98;;;;;;;5.15;85.15;102106.09;5052508;28;20052;-49
2021/12/20 06:19:23;;;;;;;21.75;6.53;;;;;;;5.15;86.04;102100.06;5052140;28;20056;-48
2021/12/20 06:21:50;;;;;;;17.50;5.93;;;;;;;5.13;85.83;102107.09;5052410;28;20053;-49
2021/12/20 06:24:17;;;;;;;18.90;7.22;;;;;;;5.10;86.67;102112.44;5052203;28;20045;-48
2021/12/20 06:26:44;;;;;;;24.73;8.15;;;;;;;5.17;86.48;102111.19;5052191;28;20471;-47
2021/12/20 06:29:11;;;;;;;26.45;8.32;;;;;;;5.16;85.82;102112.09;5051130;28;20099;-48
2021/12/20 06:31:38;;;;;;;18.95;8.27;;;;;;;5.10;85.27;102112.44;5052016;28;20061;-48
2021/12/20 06:34:04;;;;;;;22.88;7.13;;;;;;;5.07;86.01;102107.44;5052217;28;20474;-52
2021/12/20 06:36:33;;;;;;;19.52;7.45;;;;;;;5.08;84.76;102114.28;5052071;28;20083;-47
2021/12/20 06:38:59;;;;;;;23.73;6.70;;;;;;;5.09;85.44;102110.78;5051773;28;20099;-47
2021/12/20 06:41:26;;;;;;;19.83;7.30;;;;;;;5.03;85.18;102116.28;5052258;28;20057;-49
2021/12/20 06:43:53;;;;;;;28.35;8.40;;;;;;;5.03;85.00;102118.88;5051855;28;20045;-49
2021/12/20 06:46:21;;;;;;;21.48;7.45;;;;;;;5.10;84.66;102117.63;5052498;28;20110;-49
2021/12/20 06:48:48;;;;;;;22.83;7.50;;;;;;;5.08;84.36;102114.28;5051766;28;20106;-47
2021/12/20 06:51:15;;;;;;;21.38;7.22;;;;;;;5.10;83.89;102117.63;5051978;28;20107;-53
2021/12/20 06:53:43;;;;;;;16.27;6.13;;;;;;;5.08;83.14;102116.88;5052557;28;20053;-49
2021/12/20 06:56:12;;;;;;;22.00;7.25;;;;;;;5.08;83.78;102117.72;5085711;22;20055;-44
2021/12/20 06:58:39;;;;;;;16.15;6.45;;;;;;;5.04;83.07;102117.97;5089074;28;20056;-46
2021/12/20 07:01:05;;;;;;;22.60;6.80;;;;;;;5.02;83.92;102115.44;5091338;28;20067;-47
2021/12/20 07:03:32;;;;;;;19.90;6.90;;;;;;;5.04;83.68;102120.56;5090934;28;20135;-46
2021/12/20 07:05:59;;;;;;;24.15;7.43;;;;;;;5.08;84.11;102130.69;5091882;28;20476;-45
2021/12/20 08:15:26;;;;;;;22.73;6.78;;;;;;;4.65;85.44;102161.53;5030548;28;20139;-45
2021/12/20 08:17:53;;;;;;;24.42;7.50;;;;;;;4.61;85.80;102154.00;5030821;28;20053;-48
2021/12/20 08:20:33;;;;;;;24.20;7.18;;;;;;;4.49;86.69;102159.81;5030575;28;20064;-51
2021/12/20 08:23:01;;;;;;;24.58;6.07;;;;;;;4.50;86.88;102164.06;5030133;28;20582;-48
2021/12/20 08:25:28;;;;;;;24.27;5.88;;;;;;;4.54;86.54;102163.84;5030825;28;20053;-46
2021/12/20 08:27:55;;;;;;;25.80;6.25;;;;;;;4.54;86.75;102166.44;5030214;28;20049;-48
2021/12/20 08:30:24;;;;;;;24.80;6.68;;;;;;;4.43;87.26;102163.56;5030980;28;20511;-49
2021/12/20 08:33:03;;;;;;;22.05;6.35;;;;;;;4.39;87.26;102163.78;5030979;28;20053;-51
2021/12/20 08:35:30;;;;;;;24.67;6.88;;;;;;;4.31;87.68;102175.38;5043585;28;20557;-50
2021/12/20 08:37:59;;;;;;;18.80;6.72;;;;;;;4.48;87.38;102171.09;5050729;28;20053;-48
2021/12/20 08:40:25;;;;;;;21.42;6.72;;;;;;;4.43;87.17;102175.66;5031346;28;20053;-49
2021/12/20 08:42:52;;;;;;;26.58;7.53;;;;;;;4.34;87.67;102179.56;5031222;28;20056;-47
2021/12/20 08:46:16;;;;;;;27.30;7.97;;;;;;;4.31;87.68;102183.16;5030779;28;20064;-47
2021/12/20 08:48:44;;;;;;;32.58;7.55;;;;;;;4.25;87.98;102174.88;5031771;28;20503;-48
2021/12/20 08:51:11;;;;;;;28.65;7.60;;;;;;;4.24;88.44;102179.22;5032626;28;20057;-47
2021/12/20 08:53:41;;;;;;;27.98;7.82;;;;;;;4.28;87.99;102188.47;5035197;28;20061;-48
2021/12/20 08:56:21;;;;;;;34.35;8.10;;;;;;;4.31;88.19;102185.75;5035076;28;20049;-50
2021/12/20 08:58:51;;;;;;;34.58;9.50;;;;;;;4.39;87.84;102197.47;5055955;23;20160;-50
2021/12/20 09:01:24;;;;;;;29.52;8.13;;;;;;;4.38;87.70;102193.22;5055806;28;20418;-52
2021/12/20 09:04:11;;;;;;;25.42;7.88;;;;;;;4.38;87.66;102191.47;5055873;28;20045;-48
2021/12/20 09:06:41;;;;;;;27.15;8.25;;;;;;;4.47;87.65;102197.94;5055365;28;20089;-50
2021/12/20 09:09:10;;;;;;;39.22;9.13;;;;;;;4.47;86.34;102197.94;5054956;28;20574;-49
2021/12/20 09:11:39;;;;;;;31.20;8.52;;;;;;;4.55;85.47;102200.97;5055564;28;20469;-47
2021/12/20 09:14:06;;;;;;;24.50;7.78;;;;;;;4.58;86.12;102195.63;5055186;28;20517;-51
2021/12/20 09:16:33;;;;;;;33.88;9.43;;;;;;;4.56;86.04;102194.88;5054614;28;20063;-47
2021/12/20 09:19:02;;;;;;;28.77;7.57;;;;;;;4.54;85.85;102204.47;5055064;28;20494;-47
2021/12/20 09:21:31;;;;;;;34.10;9.10;;;;;;;4.56;86.37;102211.25;5054728;28;20103;-47
2021/12/20 09:24:03;;;;;;;30.88;8.05;;;;;;;4.63;86.14;102201.41;5054557;28;20119;-48
2021/12/20 09:26:30;;;;;;;26.55;8.57;;;;;;;4.66;85.09;102216.81;5054301;28;20333;-47
2021/12/20 09:28:57;;;;;;;34.72;8.52;;;;;;;4.66;85.63;102212.47;5054290;28;20102;-49
2021/12/20 09:31:24;;;;;;;24.20;8.32;;;;;;;4.69;85.26;102215.81;5054068;28;20057;-48
2021/12/20 09:33:51;;;;;;;31.77;7.82;;;;;;;4.65;85.22;102210.78;5054091;28;20154;-47
2021/12/20 09:36:18;;;;;;;30.58;8.30;;;;;;;4.75;85.20;102218.91;5053888;28;20045;-47
2021/12/20 09:38:46;;;;;;;32.72;8.73;;;;;;;4.80;84.46;102219.50;5054121;28;20059;-49
2021/12/20 09:41:59;;;;;;;28.85;8.15;;;;;;;4.80;84.40;102224.69;5054446;28;20103;-46
2021/12/20 09:44:11;;;;;;;34.65;8.98;;;;;;;4.86;84.29;102233.91;5054435;28;20048;-47
2021/12/20 09:47:07;;;;;;;27.77;9.30;;;;;;;4.86;83.80;102229.56;5054194;28;20057;-47
2021/12/20 09:49:47;;;;;;;26.75;8.63;;;;;;;5.05;83.46;102224.25;5053876;28;20168;-47
2021/12/20 09:53:07;;;;;;;31.08;9.55;;;;;;;4.96;82.99;102230.75;5055011;28;20076;-47
2021/12/20 09:55:38;;;;;;;31.92;8.05;;;;;;;5.15;83.20;102224.59;5050841;28;20060;-52
2021/12/20 09:58:07;;;;;;;33.85;8.93;;;;;;;5.09;83.03;102223.19;5054322;28;20060;-47
2021/12/20 10:01:04;;;;;;;26.95;8.07;;;;;;;5.11;82.47;102223.94;5054368;28;20118;-52
2021/12/20 10:04:01;;;;;;;27.85;10.27;;;;;;;5.07;81.15;102221.59;5053676;28;20056;-51
2021/12/20 10:06:54;;;;;;;34.83;8.88;;;;;;;5.13;81.58;102218.66;5053953;28;20060;-49
2021/12/20 10:09:27;;;;;;;31.85;8.75;;;;;;;5.15;80.76;102225.44;5053661;28;20517;-46
2021/12/20 10:12:17;;;;;;;22.30;6.32;;;;;;;5.15;81.02;102229.81;5054098;28;20045;-47
2021/12/20 10:15:00;;;;;;;28.25;7.20;;;;;;;5.26;80.07;102227.44;5054167;28;20049;-46
2021/12/20 10:17:29;;;;;;;;;;;;;;;5.22;81.14;102228.53;5054183;28;20135;-47
2021/12/20 10:19:56;;;;;;;24.27;7.32;;;;;;;5.16;81.16;102237.50;5053728;28;19932;-48
2021/12/20 10:22:26;;;;;;;27.88;7.20;;;;;;;5.19;80.79;102237.34;5053611;28;20057;-49
2021/12/20 10:24:53;;;;;;;26.63;8.38;;;;;;;5.15;80.68;102233.22;5053887;28;20087;-51
2021/12/20 10:27:33;;;;;;;32.15;8.32;;;;;;;5.23;80.04;102227.59;5053068;28;20052;-50
2021/12/20 10:30:02;;;;;;;23.55;7.25;;;;;;;5.28;79.68;102226.44;5053352;28;20049;-47
2021/12/20 10:32:39;;;;;;;30.88;7.50;;;;;;;5.31;79.20;102230.63;5053436;28;20422;-46
2021/12/20 10:35:32;;;;;;;38.35;8.75;;;;;;;5.37;79.09;102229.47;5053255;28;20045;-48
2021/12/20 10:38:01;;;;;;;24.50;7.45;;;;;;;5.33;78.74;102223.59;5052859;28;20487;-46
2021/12/20 10:40:29;;;;;;;25.40;7.85;;;;;;;5.44;79.07;102223.84;5053223;28;20049;-47
2021/12/20 10:42:59;;;;;;;20.15;7.70;;;;;;;5.47;78.98;102215.91;5053130;28;20049;-51
2021/12/20 10:45:28;;;;;;;29.10;8.05;;;;;;;5.59;78.56;102225.63;5053093;28;20079;-49
2021/12/20 10:47:55;;;;;;;35.13;7.45;;;;;;;5.66;77.68;102229.56;5053309;28;20510;-48
2021/12/20 10:50:26;;;;;;;24.05;7.82;;;;;;;5.52;78.33;102218.25;5053068;28;20048;-48
2021/12/20 10:52:55;;;;;;;27.67;8.52;;;;;;;5.46;77.91;102218.56;5053298;28;20084;-48
2021/12/20 10:56:06;;;;;;;29.02;8.07;;;;;;;5.59;78.41;102215.22;5052674;28;20421;-50
2021/12/20 10:59:24;;;;;;;32.90;8.75;;;;;;;5.63;77.95;102219.34;5053001;28;20082;-49
2021/12/20 11:05:25;;;;;;;22.92;8.07;;;;;;;5.74;76.45;102216.09;5002512;28;20069;-48
2021/12/20 11:10:39;;;;;;;26.40;7.78;;;;;;;5.76;72.56;102214.25;5032546;28;20143;-52
2021/12/20 11:13:16;;;;;;;29.63;7.47;;;;;;;5.81;72.58;102214.00;5033015;28;20069;-48
2021/12/20 11:15:43;;;;;;;44.00;8.20;;;;;;;5.82;72.82;102207.88;5031961;28;20064;-49
2021/12/20 11:18:17;;;;;;;26.52;7.03;;;;;;;5.86;72.44;102206.78;5032588;28;20166;-52
2021/12/20 11:20:44;;;;;;;21.95;6.65;;;;;;;5.82;71.94;102205.28;5033026;28;20050;-49
2021/12/20 11:23:12;;;;;;;22.95;7.20;;;;;;;5.90;71.64;102205.72;5032602;28;20396;-47
2021/12/20 11:25:40;;;;;;;24.10;5.90;;;;;;;5.94;70.62;102196.84;5032197;28;20075;-48
2021/12/20 11:28:07;;;;;;;18.90;6.50;;;;;;;5.94;69.83;102199.44;5032081;28;20503;-48
2021/12/20 11:30:35;;;;;;;24.20;6.15;;;;;;;5.94;69.35;102199.44;5031918;28;20121;-47
2021/12/20 11:33:02;;;;;;;20.58;5.88;;;;;;;6.00;70.00;102196.50;5032944;28;20060;-52
2021/12/20 11:35:32;;;;;;;21.02;6.10;;;;;;;5.99;68.83;102202.59;5032617;28;20343;-49
2021/12/20 11:37:59;;;;;;;25.10;6.07;;;;;;;5.96;69.21;102202.78;5033007;28;20104;-46
2021/12/20 11:40:26;;;;;;;11.45;4.80;;;;;;;6.00;68.90;102201.69;5032326;28;20053;-46
2021/12/20 11:42:53;;;;;;;23.52;5.25;;;;;;;5.99;68.86;102197.41;5032263;28;20061;-47
2021/12/20 11:45:21;;;;;;;18.63;6.57;;;;;;;6.00;68.54;102201.69;5031665;28;20084;-47
2021/12/20 11:47:52;;;;;;;20.08;5.22;;;;;;;6.02;67.20;102191.22;5031479;28;20103;-46
2021/12/20 11:50:22;;;;;;;18.75;4.55;;;;;;;6.06;66.03;102193.53;5031826;28;20065;-48
2021/12/20 11:52:52;;;;;;;12.13;4.07;;;;;;;6.03;66.66;102191.13;5032024;28;20053;-47
2021/12/20 11:55:21;;;;;;;14.55;4.88;;;;;;;6.07;66.73;102183.97;5031333;28;20140;-47
2021/12/20 11:57:50;;;;;;;19.17;5.18;;;;;;;6.08;67.20;102186.50;5031505;28;20045;-48
2021/12/20 12:00:32;;;;;;;15.60;4.30;;;;;;;6.10;65.05;102184.66;5031511;28;20479;-50
2021/12/20 12:03:04;;;;;;;11.77;3.80;;;;;;;6.14;62.20;102174.91;5031302;28;20084;-47
2021/12/20 12:05:37;;;;;;;12.98;3.78;;;;;;;6.07;62.54;102183.97;5031513;28;20415;-49
2021/12/20 12:08:32;;;;;;;18.25;4.97;;;;;;;6.09;61.30;102180.38;5031215;28;20064;-49
2021/12/20 12:11:27;;;;;;;12.82;4.05;;;;;;;6.18;62.90;102177.22;5031650;28;20057;-54
2021/12/20 12:14:18;;;;;;;11.15;4.13;;;;;;;6.19;61.73;102176.28;5031715;28;20488;-50
2021/12/20 12:17:08;;;;;;;13.65;4.80;;;;;;;6.15;61.18;102177.38;5035727;28;20048;-47
2021/12/20 12:20:02;;;;;;;15.00;4.72;;;;;;;6.20;60.27;102177.13;5051029;28;20080;-51
2021/12/20 12:22:37;;;;;;;14.52;5.22;;;;;;;6.11;61.44;102181.13;5050549;28;20056;-48
2021/12/20 12:25:09;;;;;;;13.43;4.03;;;;;;;6.19;60.71;102178.03;5050770;28;20061;-48
2021/12/20 12:27:38;;;;;;;9.70;3.40;;;;;;;6.18;59.34;102176.38;5052755;28;20060;-47
2021/12/20 12:30:39;;;;;;;13.52;3.80;;;;;;;6.32;58.91;102174.63;5056395;28;20077;-49
2021/12/20 12:33:49;;;;;;;12.57;4.13;;;;;;;6.19;58.67;102168.47;5053343;28;20059;-51
2021/12/20 12:36:26;;;;;;;11.70;4.13;;;;;;;6.29;59.85;102173.97;5054104;28;20075;-47
2021/12/20 12:38:57;;;;;;;11.77;3.92;;;;;;;6.27;57.71;102171.47;5054722;28;20118;-48
2021/12/20 12:41:58;;;;;;;9.38;3.47;;;;;;;6.29;55.66;102174.81;5054345;28;20560;-48
2021/12/20 12:44:36;;;;;;;9.68;3.80;;;;;;;6.31;55.38;102178.16;5054791;28;20045;-48
2021/12/20 12:50:27;;;;;;;17.70;3.67;;;;;;;6.38;54.66;102167.41;5052983;28;20052;-51
2021/12/20 12:52:55;;;;;;;6.78;3.25;;;;;;;6.38;54.18;102162.22;5054932;28;20398;-47
2021/12/20 12:55:30;;;;;;;11.18;3.67;;;;;;;6.33;54.34;102160.72;5052935;28;20049;-53
2021/12/20 12:58:20;;;;;;;9.82;3.15;;;;;;;6.24;54.97;102157.81;5048920;28;20056;-49
2021/12/20 13:00:57;;;;;;;7.78;2.60;;;;;;;6.21;52.56;102158.84;5051643;28;20080;-49
2021/12/20 13:03:26;;;;;;;9.63;2.80;;;;;;;6.21;51.58;102161.44;5053802;28;20052;-51
2021/12/20 13:05:53;;;;;;;8.32;3.20;;;;;;;6.21;51.82;102156.25;5054351;28;20516;-47
2021/12/20 13:08:21;;;;;;;5.88;2.70;;;;;;;6.19;51.67;102159.84;5054599;28;20491;-47